sensor_id;sensor_type;location;lat;lon;timestamp;P1;durP1;ratioP1;P2;durP2;ratioP2
45694;SDS011;31408;45.468;9.124;2022-12-07T00:01:33;37.85;;;21.40;;
45694;SDS011;31408;45.468;9.124;2022-12-07T00:04:00;40.38;;;23.88;;
45694;SDS011;31408;45.468;9.124;2022-12-07T00:06:37;40.45;;;23.35;;
45694;SDS011;31408;45.468;9.124;2022-12-07T00:09:05;40.08;;;21.63;;
45694;SDS011;31408;45.468;9.124;2022-12-07T00:11:32;44.67;;;22.95;;
45694;SDS011;31408;45.468;9.124;2022-12-07T00:13:59;43.13;;;20.83;;
45694;SDS011;31408;45.468;9.124;2022-12-07T00:16:28;40.78;;;21.48;;
45694;SDS011;31408;45.468;9.124;2022-12-07T00:19:04;39.83;;;21.40;;
45694;SDS011;31408;45.468;9.124;2022-12-07T00:21:31;43.30;;;21.45;;
45694;SDS011;31408;45.468;9.124;2022-12-07T00:23:58;38.33;;;20.60;;
45694;SDS011;31408;45.468;9.124;2022-12-07T00:26:28;40.13;;;21.67;;
45694;SDS011;31408;45.468;9.124;2022-12-07T00:29:01;47.25;;;21.02;;
45694;SDS011;31408;45.468;9.124;2022-12-07T00:31:29;42.70;;;20.45;;
45694;SDS011;31408;45.468;9.124;2022-12-07T00:33:58;42.95;;;21.30;;
45694;SDS011;31408;45.468;9.124;2022-12-07T00:36:24;39.90;;;22.42;;
45694;SDS011;31408;45.468;9.124;2022-12-07T00:38:50;36.30;;;19.83;;
45694;SDS011;31408;45.468;9.124;2022-12-07T00:41:17;38.92;;;19.52;;
45694;SDS011;31408;45.468;9.124;2022-12-07T00:43:44;41.35;;;21.85;;
45694;SDS011;31408;45.468;9.124;2022-12-07T00:46:11;39.30;;;21.20;;
45694;SDS011;31408;45.468;9.124;2022-12-07T00:48:37;43.75;;;21.73;;
45694;SDS011;31408;45.468;9.124;2022-12-07T00:51:03;34.78;;;19.75;;
45694;SDS011;31408;45.468;9.124;2022-12-07T00:53:30;37.95;;;21.52;;
45694;SDS011;31408;45.468;9.124;2022-12-07T00:55:56;36.78;;;21.70;;
45694;SDS011;31408;45.468;9.124;2022-12-07T00:58:23;35.47;;;18.55;;
45694;SDS011;31408;45.468;9.124;2022-12-07T01:00:49;39.47;;;20.45;;
45694;SDS011;31408;45.468;9.124;2022-12-07T01:03:15;37.03;;;18.70;;
45694;SDS011;31408;45.468;9.124;2022-12-07T01:05:48;38.42;;;19.85;;
45694;SDS011;31408;45.468;9.124;2022-12-07T01:08:15;40.63;;;20.50;;
45694;SDS011;31408;45.468;9.124;2022-12-07T01:10:40;40.95;;;22.45;;
45694;SDS011;31408;45.468;9.124;2022-12-07T01:13:06;37.10;;;19.23;;
45694;SDS011;31408;45.468;9.124;2022-12-07T01:15:32;35.28;;;19.25;;
45694;SDS011;31408;45.468;9.124;2022-12-07T01:17:57;31.98;;;17.83;;
45694;SDS011;31408;45.468;9.124;2022-12-07T01:20:23;37.83;;;18.83;;
45694;SDS011;31408;45.468;9.124;2022-12-07T01:22:48;35.72;;;19.33;;
45694;SDS011;31408;45.468;9.124;2022-12-07T01:25:14;36.40;;;20.02;;
45694;SDS011;31408;45.468;9.124;2022-12-07T01:27:40;37.55;;;19.08;;
45694;SDS011;31408;45.468;9.124;2022-12-07T01:30:05;31.50;;;17.67;;
45694;SDS011;31408;45.468;9.124;2022-12-07T01:32:32;33.10;;;20.35;;
45694;SDS011;31408;45.468;9.124;2022-12-07T01:34:58;38.95;;;18.52;;
45694;SDS011;31408;45.468;9.124;2022-12-07T01:37:23;38.67;;;18.67;;
45694;SDS011;31408;45.468;9.124;2022-12-07T01:39:49;37.20;;;18.00;;
45694;SDS011;31408;45.468;9.124;2022-12-07T01:42:16;33.08;;;17.20;;
45694;SDS011;31408;45.468;9.124;2022-12-07T01:45:43;33.90;;;17.30;;
45694;SDS011;31408;45.468;9.124;2022-12-07T01:47:54;33.95;;;17.98;;
45694;SDS011;31408;45.468;9.124;2022-12-07T01:50:20;33.85;;;19.20;;
45694;SDS011;31408;45.468;9.124;2022-12-07T01:52:47;36.80;;;19.38;;
45694;SDS011;31408;45.468;9.124;2022-12-07T01:55:19;29.48;;;15.80;;
45694;SDS011;31408;45.468;9.124;2022-12-07T01:57:47;35.83;;;18.15;;
45694;SDS011;31408;45.468;9.124;2022-12-07T02:00:14;33.20;;;18.13;;
45694;SDS011;31408;45.468;9.124;2022-12-07T02:02:44;34.80;;;19.83;;
45694;SDS011;31408;45.468;9.124;2022-12-07T02:05:13;36.13;;;17.27;;
45694;SDS011;31408;45.468;9.124;2022-12-07T02:07:39;39.78;;;19.13;;
45694;SDS011;31408;45.468;9.124;2022-12-07T02:10:18;39.80;;;19.60;;
45694;SDS011;31408;45.468;9.124;2022-12-07T02:12:49;36.10;;;19.27;;
45694;SDS011;31408;45.468;9.124;2022-12-07T02:15:21;34.08;;;19.60;;
45694;SDS011;31408;45.468;9.124;2022-12-07T02:18:02;34.97;;;18.95;;
45694;SDS011;31408;45.468;9.124;2022-12-07T02:21:10;36.08;;;17.48;;
45694;SDS011;31408;45.468;9.124;2022-12-07T02:29:17;34.05;;;18.92;;
45694;SDS011;31408;45.468;9.124;2022-12-07T02:34:37;34.58;;;17.90;;
45694;SDS011;31408;45.468;9.124;2022-12-07T02:40:38;38.03;;;18.63;;
45694;SDS011;31408;45.468;9.124;2022-12-07T02:45:57;34.72;;;17.77;;
45694;SDS011;31408;45.468;9.124;2022-12-07T02:48:24;37.00;;;17.60;;
45694;SDS011;31408;45.468;9.124;2022-12-07T02:50:51;33.00;;;17.42;;
45694;SDS011;31408;45.468;9.124;2022-12-07T03:01:31;32.83;;;18.38;;
45694;SDS011;31408;45.468;9.124;2022-12-07T03:04:33;31.48;;;17.75;;
45694;SDS011;31408;45.468;9.124;2022-12-07T03:07:05;33.20;;;17.67;;
45694;SDS011;31408;45.468;9.124;2022-12-07T03:09:35;35.25;;;19.23;;
45694;SDS011;31408;45.468;9.124;2022-12-07T03:12:19;36.25;;;17.30;;
45694;SDS011;31408;45.468;9.124;2022-12-07T03:14:49;32.97;;;17.63;;
45694;SDS011;31408;45.468;9.124;2022-12-07T03:17:24;39.55;;;17.50;;
45694;SDS011;31408;45.468;9.124;2022-12-07T03:19:53;32.35;;;17.70;;
45694;SDS011;31408;45.468;9.124;2022-12-07T03:22:21;33.95;;;16.30;;
45694;SDS011;31408;45.468;9.124;2022-12-07T03:24:52;31.65;;;17.95;;
45694;SDS011;31408;45.468;9.124;2022-12-07T03:27:21;37.28;;;18.15;;
45694;SDS011;31408;45.468;9.124;2022-12-07T03:29:50;34.47;;;17.63;;
45694;SDS011;31408;45.468;9.124;2022-12-07T03:32:24;29.83;;;15.55;;
45694;SDS011;31408;45.468;9.124;2022-12-07T03:34:58;31.80;;;18.10;;
45694;SDS011;31408;45.468;9.124;2022-12-07T03:37:36;35.13;;;16.73;;
45694;SDS011;31408;45.468;9.124;2022-12-07T03:40:06;34.33;;;17.05;;
45694;SDS011;31408;45.468;9.124;2022-12-07T03:42:53;30.63;;;17.67;;
45694;SDS011;31408;45.468;9.124;2022-12-07T03:45:21;34.38;;;18.83;;
45694;SDS011;31408;45.468;9.124;2022-12-07T03:47:54;32.10;;;16.48;;
45694;SDS011;31408;45.468;9.124;2022-12-07T03:51:01;30.27;;;17.42;;
45694;SDS011;31408;45.468;9.124;2022-12-07T03:56:14;29.13;;;16.92;;
45694;SDS011;31408;45.468;9.124;2022-12-07T03:58:41;34.78;;;18.15;;
45694;SDS011;31408;45.468;9.124;2022-12-07T04:01:07;30.42;;;17.83;;
45694;SDS011;31408;45.468;9.124;2022-12-07T04:03:32;34.75;;;16.45;;
45694;SDS011;31408;45.468;9.124;2022-12-07T04:06:03;35.75;;;17.52;;
45694;SDS011;31408;45.468;9.124;2022-12-07T04:08:29;35.53;;;18.63;;
45694;SDS011;31408;45.468;9.124;2022-12-07T04:10:54;35.00;;;17.70;;
45694;SDS011;31408;45.468;9.124;2022-12-07T04:13:19;28.65;;;17.25;;
45694;SDS011;31408;45.468;9.124;2022-12-07T04:15:45;32.08;;;16.88;;
45694;SDS011;31408;45.468;9.124;2022-12-07T04:18:10;31.25;;;16.42;;
45694;SDS011;31408;45.468;9.124;2022-12-07T04:20:36;32.63;;;17.20;;
45694;SDS011;31408;45.468;9.124;2022-12-07T04:23:01;35.22;;;15.68;;
45694;SDS011;31408;45.468;9.124;2022-12-07T04:25:32;31.60;;;16.45;;
45694;SDS011;31408;45.468;9.124;2022-12-07T04:27:57;27.10;;;15.35;;
45694;SDS011;31408;45.468;9.124;2022-12-07T04:30:23;31.73;;;15.98;;
45694;SDS011;31408;45.468;9.124;2022-12-07T04:32:48;30.50;;;16.08;;
45694;SDS011;31408;45.468;9.124;2022-12-07T04:35:14;31.63;;;18.38;;
45694;SDS011;31408;45.468;9.124;2022-12-07T04:37:39;37.03;;;15.93;;
45694;SDS011;31408;45.468;9.124;2022-12-07T04:40:06;33.08;;;16.48;;
45694;SDS011;31408;45.468;9.124;2022-12-07T04:42:36;33.53;;;16.33;;
45694;SDS011;31408;45.468;9.124;2022-12-07T04:45:07;29.20;;;15.27;;
45694;SDS011;31408;45.468;9.124;2022-12-07T04:47:33;36.10;;;16.98;;
45694;SDS011;31408;45.468;9.124;2022-12-07T04:49:58;24.63;;;14.32;;
45694;SDS011;31408;45.468;9.124;2022-12-07T04:52:24;34.70;;;16.52;;
45694;SDS011;31408;45.468;9.124;2022-12-07T04:54:49;28.67;;;16.35;;
45694;SDS011;31408;45.468;9.124;2022-12-07T04:57:15;32.15;;;16.85;;
45694;SDS011;31408;45.468;9.124;2022-12-07T04:59:40;27.27;;;14.95;;
45694;SDS011;31408;45.468;9.124;2022-12-07T05:02:06;28.67;;;14.98;;
45694;SDS011;31408;45.468;9.124;2022-12-07T05:07:22;28.45;;;15.52;;
45694;SDS011;31408;45.468;9.124;2022-12-07T05:09:47;31.60;;;17.33;;
45694;SDS011;31408;45.468;9.124;2022-12-07T05:12:12;31.73;;;17.10;;
45694;SDS011;31408;45.468;9.124;2022-12-07T05:14:38;28.75;;;15.13;;
45694;SDS011;31408;45.468;9.124;2022-12-07T05:17:03;29.83;;;16.13;;
45694;SDS011;31408;45.468;9.124;2022-12-07T05:19:29;26.95;;;16.80;;
45694;SDS011;31408;45.468;9.124;2022-12-07T05:21:55;30.88;;;16.70;;
45694;SDS011;31408;45.468;9.124;2022-12-07T05:24:25;32.33;;;16.42;;
45694;SDS011;31408;45.468;9.124;2022-12-07T05:26:51;32.95;;;15.70;;
45694;SDS011;31408;45.468;9.124;2022-12-07T05:29:16;30.48;;;16.92;;
45694;SDS011;31408;45.468;9.124;2022-12-07T05:31:42;30.98;;;15.65;;
45694;SDS011;31408;45.468;9.124;2022-12-07T05:34:08;34.05;;;17.65;;
45694;SDS011;31408;45.468;9.124;2022-12-07T05:36:34;37.17;;;17.33;;
45694;SDS011;31408;45.468;9.124;2022-12-07T05:39:00;29.55;;;16.27;;
45694;SDS011;31408;45.468;9.124;2022-12-07T05:41:25;29.88;;;16.58;;
45694;SDS011;31408;45.468;9.124;2022-12-07T05:44:09;30.30;;;15.88;;
45694;SDS011;31408;45.468;9.124;2022-12-07T05:46:35;30.58;;;15.60;;
45694;SDS011;31408;45.468;9.124;2022-12-07T05:49:00;28.67;;;14.10;;
45694;SDS011;31408;45.468;9.124;2022-12-07T05:51:26;29.92;;;16.35;;
45694;SDS011;31408;45.468;9.124;2022-12-07T05:53:51;34.03;;;14.73;;
45694;SDS011;31408;45.468;9.124;2022-12-07T05:56:17;30.60;;;14.90;;
45694;SDS011;31408;45.468;9.124;2022-12-07T05:58:42;28.27;;;16.15;;
45694;SDS011;31408;45.468;9.124;2022-12-07T06:01:26;31.52;;;15.55;;
45694;SDS011;31408;45.468;9.124;2022-12-07T06:03:52;25.73;;;14.02;;
45694;SDS011;31408;45.468;9.124;2022-12-07T06:06:17;30.77;;;15.35;;
45694;SDS011;31408;45.468;9.124;2022-12-07T06:08:43;28.08;;;14.40;;
45694;SDS011;31408;45.468;9.124;2022-12-07T06:11:08;25.95;;;14.55;;
45694;SDS011;31408;45.468;9.124;2022-12-07T06:13:52;33.63;;;16.77;;
45694;SDS011;31408;45.468;9.124;2022-12-07T06:16:18;24.30;;;12.93;;
45694;SDS011;31408;45.468;9.124;2022-12-07T06:18:43;26.20;;;13.13;;
45694;SDS011;31408;45.468;9.124;2022-12-07T06:21:09;27.98;;;14.32;;
45694;SDS011;31408;45.468;9.124;2022-12-07T06:23:34;30.05;;;15.13;;
45694;SDS011;31408;45.468;9.124;2022-12-07T06:26:00;25.20;;;13.07;;
45694;SDS011;31408;45.468;9.124;2022-12-07T06:28:25;32.88;;;14.48;;
45694;SDS011;31408;45.468;9.124;2022-12-07T06:31:00;28.20;;;14.23;;
45694;SDS011;31408;45.468;9.124;2022-12-07T06:33:26;23.23;;;13.07;;
45694;SDS011;31408;45.468;9.124;2022-12-07T06:35:52;25.15;;;12.70;;
45694;SDS011;31408;45.468;9.124;2022-12-07T06:38:18;28.95;;;13.38;;
45694;SDS011;31408;45.468;9.124;2022-12-07T06:40:43;23.10;;;12.23;;
45694;SDS011;31408;45.468;9.124;2022-12-07T06:43:08;27.60;;;13.65;;
45694;SDS011;31408;45.468;9.124;2022-12-07T06:45:34;24.48;;;12.50;;
45694;SDS011;31408;45.468;9.124;2022-12-07T06:48:00;29.63;;;14.45;;
45694;SDS011;31408;45.468;9.124;2022-12-07T06:50:25;27.50;;;12.20;;
45694;SDS011;31408;45.468;9.124;2022-12-07T06:52:51;20.73;;;11.43;;
45694;SDS011;31408;45.468;9.124;2022-12-07T06:55:22;26.65;;;13.65;;
45694;SDS011;31408;45.468;9.124;2022-12-07T06:57:47;24.85;;;11.95;;
45694;SDS011;31408;45.468;9.124;2022-12-07T07:00:13;23.08;;;11.73;;
45694;SDS011;31408;45.468;9.124;2022-12-07T07:02:39;22.35;;;11.45;;
45694;SDS011;31408;45.468;9.124;2022-12-07T07:05:04;22.65;;;11.25;;
45694;SDS011;31408;45.468;9.124;2022-12-07T07:07:30;22.40;;;12.05;;
45694;SDS011;31408;45.468;9.124;2022-12-07T07:09:55;27.45;;;12.70;;
45694;SDS011;31408;45.468;9.124;2022-12-07T07:12:21;30.98;;;14.25;;
45694;SDS011;31408;45.468;9.124;2022-12-07T07:14:46;32.13;;;14.00;;
45694;SDS011;31408;45.468;9.124;2022-12-07T07:17:12;44.67;;;16.85;;
45694;SDS011;31408;45.468;9.124;2022-12-07T07:19:38;37.58;;;16.27;;
45694;SDS011;31408;45.468;9.124;2022-12-07T07:22:03;43.35;;;16.20;;
45694;SDS011;31408;45.468;9.124;2022-12-07T07:24:29;41.70;;;17.23;;
45694;SDS011;31408;45.468;9.124;2022-12-07T07:26:54;48.15;;;18.55;;
45694;SDS011;31408;45.468;9.124;2022-12-07T07:29:20;47.83;;;16.65;;
45694;SDS011;31408;45.468;9.124;2022-12-07T07:31:46;43.72;;;17.95;;
45694;SDS011;31408;45.468;9.124;2022-12-07T07:34:11;46.42;;;17.88;;
45694;SDS011;31408;45.468;9.124;2022-12-07T07:36:37;32.67;;;13.82;;
45694;SDS011;31408;45.468;9.124;2022-12-07T07:39:02;34.15;;;16.05;;
45694;SDS011;31408;45.468;9.124;2022-12-07T07:41:28;31.67;;;12.63;;
45694;SDS011;31408;45.468;9.124;2022-12-07T07:43:54;42.15;;;16.90;;
45694;SDS011;31408;45.468;9.124;2022-12-07T07:46:21;37.35;;;16.92;;
45694;SDS011;31408;45.468;9.124;2022-12-07T07:48:47;44.00;;;16.40;;
45694;SDS011;31408;45.468;9.124;2022-12-07T07:51:14;36.55;;;16.50;;
45694;SDS011;31408;45.468;9.124;2022-12-07T07:53:41;35.88;;;16.10;;
45694;SDS011;31408;45.468;9.124;2022-12-07T07:56:11;40.70;;;16.00;;
45694;SDS011;31408;45.468;9.124;2022-12-07T07:58:37;42.40;;;18.10;;
45694;SDS011;31408;45.468;9.124;2022-12-07T08:01:05;35.33;;;15.85;;
45694;SDS011;31408;45.468;9.124;2022-12-07T08:03:32;34.78;;;16.20;;
45694;SDS011;31408;45.468;9.124;2022-12-07T08:05:57;40.25;;;16.13;;
45694;SDS011;31408;45.468;9.124;2022-12-07T08:08:23;40.35;;;16.83;;
45694;SDS011;31408;45.468;9.124;2022-12-07T08:10:48;36.05;;;15.63;;
45694;SDS011;31408;45.468;9.124;2022-12-07T08:13:15;39.45;;;17.17;;
45694;SDS011;31408;45.468;9.124;2022-12-07T08:15:48;33.13;;;15.73;;
45694;SDS011;31408;45.468;9.124;2022-12-07T08:18:14;39.97;;;15.90;;
45694;SDS011;31408;45.468;9.124;2022-12-07T08:20:41;36.08;;;16.13;;
45694;SDS011;31408;45.468;9.124;2022-12-07T08:23:07;42.25;;;20.23;;
45694;SDS011;31408;45.468;9.124;2022-12-07T08:25:43;47.55;;;19.67;;
45694;SDS011;31408;45.468;9.124;2022-12-07T08:28:09;44.75;;;19.08;;
45694;SDS011;31408;45.468;9.124;2022-12-07T08:30:34;43.58;;;18.45;;
45694;SDS011;31408;45.468;9.124;2022-12-07T08:33:00;37.63;;;17.25;;
45694;SDS011;31408;45.468;9.124;2022-12-07T08:35:25;39.88;;;18.40;;
45694;SDS011;31408;45.468;9.124;2022-12-07T08:37:51;37.92;;;15.80;;
45694;SDS011;31408;45.468;9.124;2022-12-07T08:40:16;37.28;;;16.95;;
45694;SDS011;31408;45.468;9.124;2022-12-07T08:42:44;39.80;;;16.25;;
45694;SDS011;31408;45.468;9.124;2022-12-07T08:45:14;41.92;;;17.98;;
45694;SDS011;31408;45.468;9.124;2022-12-07T08:47:44;35.83;;;16.17;;
45694;SDS011;31408;45.468;9.124;2022-12-07T08:50:13;45.17;;;15.85;;
45694;SDS011;31408;45.468;9.124;2022-12-07T08:52:39;45.38;;;18.20;;
45694;SDS011;31408;45.468;9.124;2022-12-07T08:55:06;42.92;;;16.98;;
45694;SDS011;31408;45.468;9.124;2022-12-07T08:57:32;35.83;;;16.10;;
45694;SDS011;31408;45.468;9.124;2022-12-07T08:59:59;44.33;;;18.52;;
45694;SDS011;31408;45.468;9.124;2022-12-07T09:02:24;41.97;;;18.83;;
45694;SDS011;31408;45.468;9.124;2022-12-07T09:04:50;45.33;;;18.00;;
45694;SDS011;31408;45.468;9.124;2022-12-07T09:07:15;36.05;;;16.92;;
45694;SDS011;31408;45.468;9.124;2022-12-07T09:09:41;40.53;;;17.58;;
45694;SDS011;31408;45.468;9.124;2022-12-07T09:12:06;37.05;;;16.77;;
45694;SDS011;31408;45.468;9.124;2022-12-07T09:14:32;42.03;;;17.75;;
45694;SDS011;31408;45.468;9.124;2022-12-07T09:17:04;40.45;;;17.58;;
45694;SDS011;31408;45.468;9.124;2022-12-07T09:19:33;32.85;;;15.50;;
45694;SDS011;31408;45.468;9.124;2022-12-07T09:21:59;35.20;;;16.55;;
45694;SDS011;31408;45.468;9.124;2022-12-07T09:24:24;34.22;;;17.70;;
45694;SDS011;31408;45.468;9.124;2022-12-07T09:26:50;39.97;;;18.58;;
45694;SDS011;31408;45.468;9.124;2022-12-07T09:29:15;35.13;;;16.35;;
45694;SDS011;31408;45.468;9.124;2022-12-07T09:31:41;32.58;;;15.65;;
45694;SDS011;31408;45.468;9.124;2022-12-07T09:34:11;34.40;;;16.83;;
45694;SDS011;31408;45.468;9.124;2022-12-07T09:36:37;35.47;;;16.48;;
45694;SDS011;31408;45.468;9.124;2022-12-07T09:39:02;37.05;;;17.98;;
45694;SDS011;31408;45.468;9.124;2022-12-07T09:41:29;37.20;;;17.13;;
45694;SDS011;31408;45.468;9.124;2022-12-07T09:44:18;34.78;;;17.73;;
45694;SDS011;31408;45.468;9.124;2022-12-07T09:46:47;44.38;;;17.75;;
45694;SDS011;31408;45.468;9.124;2022-12-07T09:49:22;34.88;;;15.80;;
45694;SDS011;31408;45.468;9.124;2022-12-07T09:52:26;31.67;;;16.20;;
45694;SDS011;31408;45.468;9.124;2022-12-07T09:54:47;36.92;;;17.10;;
45694;SDS011;31408;45.468;9.124;2022-12-07T09:57:14;34.63;;;14.02;;
45694;SDS011;31408;45.468;9.124;2022-12-07T09:59:40;37.38;;;16.08;;
45694;SDS011;31408;45.468;9.124;2022-12-07T10:04:53;27.95;;;14.23;;
45694;SDS011;31408;45.468;9.124;2022-12-07T10:07:19;31.80;;;15.48;;
45694;SDS011;31408;45.468;9.124;2022-12-07T10:09:44;30.55;;;14.35;;
45694;SDS011;31408;45.468;9.124;2022-12-07T10:12:11;32.05;;;15.48;;
45694;SDS011;31408;45.468;9.124;2022-12-07T10:15:11;30.55;;;15.02;;
45694;SDS011;31408;45.468;9.124;2022-12-07T10:17:39;39.03;;;17.17;;
45694;SDS011;31408;45.468;9.124;2022-12-07T10:23:03;33.65;;;17.10;;
45694;SDS011;31408;45.468;9.124;2022-12-07T10:25:35;30.42;;;13.73;;
45694;SDS011;31408;45.468;9.124;2022-12-07T10:30:33;34.40;;;16.02;;
45694;SDS011;31408;45.468;9.124;2022-12-07T10:33:27;41.97;;;17.35;;
45694;SDS011;31408;45.468;9.124;2022-12-07T10:41:34;32.67;;;15.65;;
45694;SDS011;31408;45.468;9.124;2022-12-07T10:43:59;36.08;;;16.30;;
45694;SDS011;31408;45.468;9.124;2022-12-07T10:54:34;38.40;;;18.08;;
45694;SDS011;31408;45.468;9.124;2022-12-07T11:08:03;37.60;;;16.83;;
45694;SDS011;31408;45.468;9.124;2022-12-07T11:10:46;41.42;;;18.67;;
45694;SDS011;31408;45.468;9.124;2022-12-07T11:21:14;42.58;;;17.73;;
45694;SDS011;31408;45.468;9.124;2022-12-07T11:26:38;42.95;;;19.20;;
45694;SDS011;31408;45.468;9.124;2022-12-07T11:37:55;44.58;;;21.05;;
45694;SDS011;31408;45.468;9.124;2022-12-07T11:40:36;45.33;;;22.30;;
45694;SDS011;31408;45.468;9.124;2022-12-07T11:43:13;43.80;;;23.33;;
45694;SDS011;31408;45.468;9.124;2022-12-07T11:45:44;48.47;;;24.25;;
45694;SDS011;31408;45.468;9.124;2022-12-07T11:51:06;51.33;;;25.65;;
45694;SDS011;31408;45.468;9.124;2022-12-07T11:53:35;48.72;;;25.67;;
45694;SDS011;31408;45.468;9.124;2022-12-07T12:01:26;56.63;;;30.33;;
45694;SDS011;31408;45.468;9.124;2022-12-07T12:04:02;66.32;;;29.98;;
45694;SDS011;31408;45.468;9.124;2022-12-07T12:06:32;57.40;;;26.80;;
45694;SDS011;31408;45.468;9.124;2022-12-07T12:22:18;65.03;;;27.77;;
45694;SDS011;31408;45.468;9.124;2022-12-07T12:24:47;59.70;;;30.45;;
45694;SDS011;31408;45.468;9.124;2022-12-07T12:27:21;52.55;;;26.45;;
45694;SDS011;31408;45.468;9.124;2022-12-07T12:29:54;57.00;;;25.02;;
45694;SDS011;31408;45.468;9.124;2022-12-07T12:32:21;45.20;;;22.65;;
45694;SDS011;31408;45.468;9.124;2022-12-07T12:37:51;45.00;;;23.25;;
45694;SDS011;31408;45.468;9.124;2022-12-07T12:42:47;37.65;;;18.60;;
45694;SDS011;31408;45.468;9.124;2022-12-07T12:45:22;41.67;;;19.52;;
45694;SDS011;31408;45.468;9.124;2022-12-07T12:47:53;35.25;;;17.45;;
45694;SDS011;31408;45.468;9.124;2022-12-07T12:50:35;32.97;;;17.30;;
45694;SDS011;31408;45.468;9.124;2022-12-07T12:53:11;39.00;;;18.98;;
45694;SDS011;31408;45.468;9.124;2022-12-07T13:00:42;34.38;;;17.50;;
45694;SDS011;31408;45.468;9.124;2022-12-07T13:03:20;36.75;;;17.75;;
45694;SDS011;31408;45.468;9.124;2022-12-07T13:08:46;32.22;;;15.65;;
45694;SDS011;31408;45.468;9.124;2022-12-07T13:14:34;29.48;;;12.75;;
45694;SDS011;31408;45.468;9.124;2022-12-07T13:16:58;24.00;;;13.48;;
45694;SDS011;31408;45.468;9.124;2022-12-07T13:20:06;28.08;;;13.90;;
45694;SDS011;31408;45.468;9.124;2022-12-07T13:24:57;28.42;;;15.60;;
45694;SDS011;31408;45.468;9.124;2022-12-07T13:27:26;30.23;;;14.77;;
45694;SDS011;31408;45.468;9.124;2022-12-07T13:29:52;24.42;;;13.93;;
45694;SDS011;31408;45.468;9.124;2022-12-07T13:32:25;30.23;;;15.75;;
45694;SDS011;31408;45.468;9.124;2022-12-07T13:34:52;28.85;;;14.93;;
45694;SDS011;31408;45.468;9.124;2022-12-07T13:37:25;28.58;;;14.40;;
45694;SDS011;31408;45.468;9.124;2022-12-07T13:39:53;28.75;;;13.27;;
45694;SDS011;31408;45.468;9.124;2022-12-07T13:45:00;27.05;;;13.93;;
45694;SDS011;31408;45.468;9.124;2022-12-07T13:47:49;26.52;;;14.52;;
45694;SDS011;31408;45.468;9.124;2022-12-07T13:52:50;31.42;;;14.10;;
45694;SDS011;31408;45.468;9.124;2022-12-07T13:58:12;32.22;;;14.40;;
45694;SDS011;31408;45.468;9.124;2022-12-07T14:00:39;27.60;;;13.32;;
45694;SDS011;31408;45.468;9.124;2022-12-07T14:05:37;25.58;;;13.20;;
45694;SDS011;31408;45.468;9.124;2022-12-07T14:10:37;23.73;;;12.15;;
45694;SDS011;31408;45.468;9.124;2022-12-07T14:16:17;24.38;;;12.85;;
45694;SDS011;31408;45.468;9.124;2022-12-07T14:18:46;23.00;;;11.82;;
45694;SDS011;31408;45.468;9.124;2022-12-07T14:23:37;30.15;;;12.38;;
45694;SDS011;31408;45.468;9.124;2022-12-07T14:28:44;23.27;;;12.50;;
45694;SDS011;31408;45.468;9.124;2022-12-07T14:31:11;24.45;;;13.07;;
45694;SDS011;31408;45.468;9.124;2022-12-07T14:33:41;25.98;;;12.27;;
45694;SDS011;31408;45.468;9.124;2022-12-07T14:36:23;26.38;;;13.38;;
45694;SDS011;31408;45.468;9.124;2022-12-07T14:38:48;25.05;;;11.77;;
45694;SDS011;31408;45.468;9.124;2022-12-07T14:41:14;26.15;;;12.70;;
45694;SDS011;31408;45.468;9.124;2022-12-07T14:44:11;24.90;;;13.35;;
45694;SDS011;31408;45.468;9.124;2022-12-07T14:46:37;24.05;;;11.48;;
45694;SDS011;31408;45.468;9.124;2022-12-07T14:49:02;23.10;;;12.55;;
45694;SDS011;31408;45.468;9.124;2022-12-07T14:51:28;22.08;;;11.02;;
45694;SDS011;31408;45.468;9.124;2022-12-07T14:53:53;24.70;;;11.80;;
45694;SDS011;31408;45.468;9.124;2022-12-07T14:56:19;24.20;;;11.48;;
45694;SDS011;31408;45.468;9.124;2022-12-07T14:58:44;22.98;;;12.10;;
45694;SDS011;31408;45.468;9.124;2022-12-07T15:01:13;25.20;;;12.85;;
45694;SDS011;31408;45.468;9.124;2022-12-07T15:03:38;27.20;;;13.30;;
45694;SDS011;31408;45.468;9.124;2022-12-07T15:06:04;27.85;;;13.65;;
45694;SDS011;31408;45.468;9.124;2022-12-07T15:08:31;28.20;;;13.80;;
45694;SDS011;31408;45.468;9.124;2022-12-07T15:10:56;28.42;;;12.23;;
45694;SDS011;31408;45.468;9.124;2022-12-07T15:13:22;22.85;;;11.80;;
45694;SDS011;31408;45.468;9.124;2022-12-07T15:16:08;27.02;;;13.45;;
45694;SDS011;31408;45.468;9.124;2022-12-07T15:18:35;24.67;;;13.02;;
45694;SDS011;31408;45.468;9.124;2022-12-07T15:21:01;23.65;;;12.52;;
45694;SDS011;31408;45.468;9.124;2022-12-07T15:23:26;24.60;;;13.60;;
45694;SDS011;31408;45.468;9.124;2022-12-07T15:25:52;23.83;;;12.40;;
45694;SDS011;31408;45.468;9.124;2022-12-07T15:28:17;23.30;;;12.40;;
45694;SDS011;31408;45.468;9.124;2022-12-07T15:30:43;25.88;;;12.93;;
45694;SDS011;31408;45.468;9.124;2022-12-07T15:33:09;26.63;;;13.98;;
45694;SDS011;31408;45.468;9.124;2022-12-07T15:38:39;25.40;;;13.68;;
45694;SDS011;31408;45.468;9.124;2022-12-07T15:41:05;27.15;;;13.63;;
45694;SDS011;31408;45.468;9.124;2022-12-07T15:43:30;25.40;;;14.00;;
45694;SDS011;31408;45.468;9.124;2022-12-07T15:46:18;26.60;;;13.40;;
45694;SDS011;31408;45.468;9.124;2022-12-07T15:48:45;28.20;;;13.98;;
45694;SDS011;31408;45.468;9.124;2022-12-07T15:51:10;24.88;;;12.77;;
45694;SDS011;31408;45.468;9.124;2022-12-07T15:53:36;25.40;;;13.07;;
45694;SDS011;31408;45.468;9.124;2022-12-07T15:56:05;25.05;;;12.52;;
45694;SDS011;31408;45.468;9.124;2022-12-07T15:58:31;27.30;;;14.45;;
45694;SDS011;31408;45.468;9.124;2022-12-07T16:00:56;30.95;;;15.50;;
45694;SDS011;31408;45.468;9.124;2022-12-07T16:03:22;32.58;;;16.67;;
45694;SDS011;31408;45.468;9.124;2022-12-07T16:05:51;29.75;;;16.55;;
45694;SDS011;31408;45.468;9.124;2022-12-07T16:08:17;36.25;;;17.23;;
45694;SDS011;31408;45.468;9.124;2022-12-07T16:10:43;39.78;;;20.40;;
45694;SDS011;31408;45.468;9.124;2022-12-07T16:13:09;37.35;;;19.38;;
45694;SDS011;31408;45.468;9.124;2022-12-07T16:15:38;35.50;;;17.27;;
45694;SDS011;31408;45.468;9.124;2022-12-07T16:18:08;38.35;;;19.35;;
45694;SDS011;31408;45.468;9.124;2022-12-07T16:20:37;32.00;;;17.25;;
45694;SDS011;31408;45.468;9.124;2022-12-07T16:23:08;38.15;;;19.48;;
45694;SDS011;31408;45.468;9.124;2022-12-07T16:25:34;37.33;;;16.95;;
45694;SDS011;31408;45.468;9.124;2022-12-07T16:27:59;41.75;;;19.98;;
45694;SDS011;31408;45.468;9.124;2022-12-07T16:30:25;37.28;;;19.92;;
45694;SDS011;31408;45.468;9.124;2022-12-07T16:32:50;37.00;;;18.92;;
45694;SDS011;31408;45.468;9.124;2022-12-07T16:35:16;36.20;;;18.27;;
45694;SDS011;31408;45.468;9.124;2022-12-07T16:37:42;34.17;;;18.35;;
45694;SDS011;31408;45.468;9.124;2022-12-07T16:40:08;40.13;;;20.33;;
45694;SDS011;31408;45.468;9.124;2022-12-07T16:42:35;40.03;;;21.45;;
45694;SDS011;31408;45.468;9.124;2022-12-07T16:48:17;33.30;;;17.52;;
45694;SDS011;31408;45.468;9.124;2022-12-07T16:50:43;42.40;;;20.85;;
45694;SDS011;31408;45.468;9.124;2022-12-07T16:53:13;42.70;;;22.08;;
45694;SDS011;31408;45.468;9.124;2022-12-07T16:55:40;43.35;;;21.30;;
45694;SDS011;31408;45.468;9.124;2022-12-07T16:58:07;45.17;;;20.10;;
45694;SDS011;31408;45.468;9.124;2022-12-07T17:00:33;39.63;;;19.90;;